sensor_id;sensor_type;location;lat;lon;timestamp;temperature;humidity
62555;DHT22;48610;52.144;8.624;2023-12-07T00:01:48;4.20;99.90
62555;DHT22;48610;52.144;8.624;2023-12-07T00:04:49;4.20;99.90
62555;DHT22;48610;52.144;8.624;2023-12-07T00:07:49;4.20;99.90
62555;DHT22;48610;52.144;8.624;2023-12-07T00:10:50;4.20;99.90
62555;DHT22;48610;52.144;8.624;2023-12-07T00:13:50;4.20;99.90
62555;DHT22;48610;52.144;8.624;2023-12-07T00:16:51;4.10;99.90
62555;DHT22;48610;52.144;8.624;2023-12-07T00:19:51;4.20;99.90
62555;DHT22;48610;52.144;8.624;2023-12-07T00:22:54;4.20;99.90
62555;DHT22;48610;52.144;8.624;2023-12-07T00:25:54;4.20;99.90
62555;DHT22;48610;52.144;8.624;2023-12-07T00:28:55;4.20;99.90
62555;DHT22;48610;52.144;8.624;2023-12-07T00:31:56;4.20;99.90
62555;DHT22;48610;52.144;8.624;2023-12-07T00:34:56;4.30;99.90
62555;DHT22;48610;52.144;8.624;2023-12-07T00:37:57;4.30;99.90
62555;DHT22;48610;52.144;8.624;2023-12-07T00:40:58;4.40;99.90
62555;DHT22;48610;52.144;8.624;2023-12-07T00:43:58;4.20;99.90
62555;DHT22;48610;52.144;8.624;2023-12-07T00:46:59;4.30;99.90
62555;DHT22;48610;52.144;8.624;2023-12-07T00:49:59;4.30;99.90
62555;DHT22;48610;52.144;8.624;2023-12-07T00:53:00;4.30;99.90
62555;DHT22;48610;52.144;8.624;2023-12-07T00:56:02;4.30;99.90
62555;DHT22;48610;52.144;8.624;2023-12-07T00:59:03;4.40;99.90
62555;DHT22;48610;52.144;8.624;2023-12-07T01:02:04;4.40;99.90
62555;DHT22;48610;52.144;8.624;2023-12-07T01:05:05;4.40;99.90
62555;DHT22;48610;52.144;8.624;2023-12-07T01:08:06;4.30;99.90
62555;DHT22;48610;52.144;8.624;2023-12-07T01:11:06;4.30;99.90
62555;DHT22;48610;52.144;8.624;2023-12-07T01:14:07;4.30;99.90
62555;DHT22;48610;52.144;8.624;2023-12-07T01:17:08;4.30;99.90
62555;DHT22;48610;52.144;8.624;2023-12-07T01:20:09;4.20;99.90
62555;DHT22;48610;52.144;8.624;2023-12-07T01:23:14;4.20;99.90
62555;DHT22;48610;52.144;8.624;2023-12-07T01:26:14;4.30;99.90
62555;DHT22;48610;52.144;8.624;2023-12-07T01:29:15;4.30;99.90
62555;DHT22;48610;52.144;8.624;2023-12-07T01:32:15;4.30;99.90
62555;DHT22;48610;52.144;8.624;2023-12-07T01:35:16;4.40;99.90
62555;DHT22;48610;52.144;8.624;2023-12-07T01:38:17;4.30;99.90
62555;DHT22;48610;52.144;8.624;2023-12-07T01:41:17;4.30;99.90
62555;DHT22;48610;52.144;8.624;2023-12-07T01:44:18;4.30;99.90
62555;DHT22;48610;52.144;8.624;2023-12-07T01:47:20;4.30;99.90
62555;DHT22;48610;52.144;8.624;2023-12-07T01:50:21;4.20;99.90
62555;DHT22;48610;52.144;8.624;2023-12-07T01:53:24;4.30;99.90
62555;DHT22;48610;52.144;8.624;2023-12-07T01:56:26;4.30;99.90
62555;DHT22;48610;52.144;8.624;2023-12-07T01:59:27;4.20;99.90
62555;DHT22;48610;52.144;8.624;2023-12-07T02:02:28;4.20;99.90
62555;DHT22;48610;52.144;8.624;2023-12-07T02:05:29;4.30;99.90
62555;DHT22;48610;52.144;8.624;2023-12-07T02:08:30;4.30;99.90
62555;DHT22;48610;52.144;8.624;2023-12-07T02:11:30;4.40;99.90
62555;DHT22;48610;52.144;8.624;2023-12-07T02:14:31;4.40;99.90
62555;DHT22;48610;52.144;8.624;2023-12-07T02:24:06;4.30;99.90
62555;DHT22;48610;52.144;8.624;2023-12-07T02:27:08;4.30;99.90
62555;DHT22;48610;52.144;8.624;2023-12-07T02:30:10;4.20;99.90
62555;DHT22;48610;52.144;8.624;2023-12-07T02:33:11;4.20;99.90
62555;DHT22;48610;52.144;8.624;2023-12-07T02:36:15;4.10;99.90
62555;DHT22;48610;52.144;8.624;2023-12-07T02:39:18;4.10;99.90
62555;DHT22;48610;52.144;8.624;2023-12-07T02:42:19;4.20;99.90
62555;DHT22;48610;52.144;8.624;2023-12-07T02:45:21;4.20;99.90
62555;DHT22;48610;52.144;8.624;2023-12-07T02:48:21;4.20;99.90
62555;DHT22;48610;52.144;8.624;2023-12-07T02:51:22;4.20;99.90
62555;DHT22;48610;52.144;8.624;2023-12-07T02:54:23;4.30;99.90
62555;DHT22;48610;52.144;8.624;2023-12-07T02:57:23;4.30;99.90
62555;DHT22;48610;52.144;8.624;2023-12-07T03:00:24;4.30;99.90
62555;DHT22;48610;52.144;8.624;2023-12-07T03:03:25;4.30;99.90
62555;DHT22;48610;52.144;8.624;2023-12-07T03:06:25;4.30;99.90
62555;DHT22;48610;52.144;8.624;2023-12-07T03:09:26;4.20;99.90
62555;DHT22;48610;52.144;8.624;2023-12-07T03:12:26;4.30;99.90
62555;DHT22;48610;52.144;8.624;2023-12-07T03:15:27;4.40;99.90
62555;DHT22;48610;52.144;8.624;2023-12-07T03:18:28;4.30;99.90
62555;DHT22;48610;52.144;8.624;2023-12-07T03:21:28;4.40;99.90
62555;DHT22;48610;52.144;8.624;2023-12-07T03:24:29;4.30;99.90
62555;DHT22;48610;52.144;8.624;2023-12-07T03:27:30;4.40;99.90
62555;DHT22;48610;52.144;8.624;2023-12-07T03:30:30;4.40;99.90
62555;DHT22;48610;52.144;8.624;2023-12-07T03:33:31;4.30;99.90
62555;DHT22;48610;52.144;8.624;2023-12-07T03:36:31;4.30;99.90
62555;DHT22;48610;52.144;8.624;2023-12-07T03:39:32;4.30;99.90
62555;DHT22;48610;52.144;8.624;2023-12-07T03:42:33;4.30;99.90
62555;DHT22;48610;52.144;8.624;2023-12-07T03:45:34;4.30;99.90
62555;DHT22;48610;52.144;8.624;2023-12-07T03:48:34;4.30;99.90
62555;DHT22;48610;52.144;8.624;2023-12-07T03:51:35;4.30;99.90
62555;DHT22;48610;52.144;8.624;2023-12-07T03:54:36;4.40;99.90
62555;DHT22;48610;52.144;8.624;2023-12-07T03:57:38;4.30;99.90
62555;DHT22;48610;52.144;8.624;2023-12-07T04:00:38;4.30;99.90
62555;DHT22;48610;52.144;8.624;2023-12-07T04:03:39;4.40;99.90
62555;DHT22;48610;52.144;8.624;2023-12-07T04:06:40;4.20;99.90
62555;DHT22;48610;52.144;8.624;2023-12-07T04:09:40;4.20;99.90
62555;DHT22;48610;52.144;8.624;2023-12-07T04:12:41;4.20;99.90
62555;DHT22;48610;52.144;8.624;2023-12-07T04:15:41;4.30;99.90
62555;DHT22;48610;52.144;8.624;2023-12-07T04:18:42;4.20;99.90
62555;DHT22;48610;52.144;8.624;2023-12-07T04:21:43;4.20;99.90
62555;DHT22;48610;52.144;8.624;2023-12-07T04:24:43;4.20;99.90
62555;DHT22;48610;52.144;8.624;2023-12-07T04:27:44;4.10;99.90
62555;DHT22;48610;52.144;8.624;2023-12-07T04:30:45;4.10;99.90
62555;DHT22;48610;52.144;8.624;2023-12-07T04:33:45;4.20;99.90
62555;DHT22;48610;52.144;8.624;2023-12-07T04:36:46;4.20;99.90
62555;DHT22;48610;52.144;8.624;2023-12-07T04:39:46;4.20;99.90
62555;DHT22;48610;52.144;8.624;2023-12-07T04:42:47;4.20;99.90
62555;DHT22;48610;52.144;8.624;2023-12-07T04:45:47;4.20;99.90
62555;DHT22;48610;52.144;8.624;2023-12-07T04:48:48;4.30;99.90
62555;DHT22;48610;52.144;8.624;2023-12-07T04:51:49;4.30;99.90
62555;DHT22;48610;52.144;8.624;2023-12-07T04:54:49;4.30;99.90
62555;DHT22;48610;52.144;8.624;2023-12-07T04:57:50;4.30;99.90
62555;DHT22;48610;52.144;8.624;2023-12-07T05:00:50;4.30;99.90
62555;DHT22;48610;52.144;8.624;2023-12-07T05:03:51;4.20;99.90
62555;DHT22;48610;52.144;8.624;2023-12-07T05:06:52;4.20;99.90
62555;DHT22;48610;52.144;8.624;2023-12-07T05:09:52;4.20;99.90
62555;DHT22;48610;52.144;8.624;2023-12-07T05:12:53;4.30;99.90
62555;DHT22;48610;52.144;8.624;2023-12-07T05:15:53;4.20;99.90
62555;DHT22;48610;52.144;8.624;2023-12-07T05:18:54;4.30;99.90
62555;DHT22;48610;52.144;8.624;2023-12-07T05:21:56;4.10;99.90
62555;DHT22;48610;52.144;8.624;2023-12-07T05:24:56;4.10;99.90
62555;DHT22;48610;52.144;8.624;2023-12-07T05:27:57;4.10;99.90
62555;DHT22;48610;52.144;8.624;2023-12-07T05:30:58;4.20;99.90
62555;DHT22;48610;52.144;8.624;2023-12-07T05:33:58;4.10;99.90
62555;DHT22;48610;52.144;8.624;2023-12-07T05:36:59;3.90;99.90
62555;DHT22;48610;52.144;8.624;2023-12-07T05:40:00;3.70;99.90
62555;DHT22;48610;52.144;8.624;2023-12-07T05:43:01;3.80;99.90
62555;DHT22;48610;52.144;8.624;2023-12-07T05:46:01;3.70;99.90
62555;DHT22;48610;52.144;8.624;2023-12-07T05:49:02;3.40;99.90
62555;DHT22;48610;52.144;8.624;2023-12-07T05:52:03;3.40;99.90
62555;DHT22;48610;52.144;8.624;2023-12-07T05:55:04;3.50;99.90
62555;DHT22;48610;52.144;8.624;2023-12-07T05:58:05;3.60;99.90
62555;DHT22;48610;52.144;8.624;2023-12-07T06:01:06;3.50;99.90
62555;DHT22;48610;52.144;8.624;2023-12-07T06:04:09;3.60;99.90
62555;DHT22;48610;52.144;8.624;2023-12-07T06:07:10;3.60;99.90
62555;DHT22;48610;52.144;8.624;2023-12-07T06:10:13;3.70;99.90
62555;DHT22;48610;52.144;8.624;2023-12-07T06:13:13;3.70;99.90
62555;DHT22;48610;52.144;8.624;2023-12-07T06:16:14;3.70;99.90
62555;DHT22;48610;52.144;8.624;2023-12-07T06:19:15;3.80;99.90
62555;DHT22;48610;52.144;8.624;2023-12-07T06:22:15;3.50;99.90
62555;DHT22;48610;52.144;8.624;2023-12-07T06:25:16;3.50;99.90
62555;DHT22;48610;52.144;8.624;2023-12-07T06:28:16;3.70;99.90
62555;DHT22;48610;52.144;8.624;2023-12-07T06:31:17;3.70;99.90
62555;DHT22;48610;52.144;8.624;2023-12-07T06:34:21;3.80;99.90
62555;DHT22;48610;52.144;8.624;2023-12-07T06:37:22;3.70;99.90
62555;DHT22;48610;52.144;8.624;2023-12-07T06:40:23;3.70;99.90
62555;DHT22;48610;52.144;8.624;2023-12-07T06:43:23;3.70;99.90
62555;DHT22;48610;52.144;8.624;2023-12-07T06:46:24;3.50;99.90
62555;DHT22;48610;52.144;8.624;2023-12-07T06:49:24;3.50;99.90
62555;DHT22;48610;52.144;8.624;2023-12-07T06:52:25;3.80;99.90
62555;DHT22;48610;52.144;8.624;2023-12-07T06:55:25;3.70;99.90
62555;DHT22;48610;52.144;8.624;2023-12-07T06:58:26;3.60;99.90
62555;DHT22;48610;52.144;8.624;2023-12-07T07:01:26;3.70;99.90
62555;DHT22;48610;52.144;8.624;2023-12-07T07:04:27;3.80;99.90
62555;DHT22;48610;52.144;8.624;2023-12-07T07:07:28;3.60;99.90
62555;DHT22;48610;52.144;8.624;2023-12-07T07:10:31;3.70;99.90
62555;DHT22;48610;52.144;8.624;2023-12-07T07:13:32;3.50;99.90
62555;DHT22;48610;52.144;8.624;2023-12-07T07:16:33;3.60;99.90
62555;DHT22;48610;52.144;8.624;2023-12-07T07:19:33;3.80;99.90
62555;DHT22;48610;52.144;8.624;2023-12-07T07:22:34;3.60;99.90
62555;DHT22;48610;52.144;8.624;2023-12-07T07:25:35;3.60;99.90
62555;DHT22;48610;52.144;8.624;2023-12-07T07:28:35;3.70;99.90
62555;DHT22;48610;52.144;8.624;2023-12-07T07:31:36;3.90;99.90
62555;DHT22;48610;52.144;8.624;2023-12-07T07:34:37;4.00;99.90
62555;DHT22;48610;52.144;8.624;2023-12-07T07:37:40;3.90;99.90
62555;DHT22;48610;52.144;8.624;2023-12-07T07:40:42;3.90;99.90
62555;DHT22;48610;52.144;8.624;2023-12-07T07:43:42;4.10;99.90
62555;DHT22;48610;52.144;8.624;2023-12-07T07:46:43;4.00;99.90
62555;DHT22;48610;52.144;8.624;2023-12-07T07:49:44;3.80;99.90
62555;DHT22;48610;52.144;8.624;2023-12-07T07:52:44;3.70;99.90
62555;DHT22;48610;52.144;8.624;2023-12-07T07:55:45;3.70;99.90
62555;DHT22;48610;52.144;8.624;2023-12-07T07:58:45;3.70;99.90
62555;DHT22;48610;52.144;8.624;2023-12-07T08:01:46;3.70;99.90
62555;DHT22;48610;52.144;8.624;2023-12-07T08:04:47;3.60;99.90
62555;DHT22;48610;52.144;8.624;2023-12-07T08:07:48;3.60;99.90
62555;DHT22;48610;52.144;8.624;2023-12-07T08:10:49;3.30;99.90
62555;DHT22;48610;52.144;8.624;2023-12-07T08:13:49;3.10;99.90
62555;DHT22;48610;52.144;8.624;2023-12-07T08:16:50;3.30;99.90
62555;DHT22;48610;52.144;8.624;2023-12-07T08:19:51;3.50;99.90
62555;DHT22;48610;52.144;8.624;2023-12-07T08:22:52;3.70;99.90
62555;DHT22;48610;52.144;8.624;2023-12-07T08:25:53;3.70;99.90
62555;DHT22;48610;52.144;8.624;2023-12-07T08:28:53;3.70;99.90
62555;DHT22;48610;52.144;8.624;2023-12-07T08:31:54;3.70;99.90
62555;DHT22;48610;52.144;8.624;2023-12-07T08:34:55;3.80;99.90
62555;DHT22;48610;52.144;8.624;2023-12-07T08:37:55;3.80;99.90
62555;DHT22;48610;52.144;8.624;2023-12-07T08:40:56;3.80;99.90
62555;DHT22;48610;52.144;8.624;2023-12-07T08:43:58;3.60;99.90
62555;DHT22;48610;52.144;8.624;2023-12-07T08:46:58;3.80;99.90
62555;DHT22;48610;52.144;8.624;2023-12-07T08:49:59;4.00;99.90
62555;DHT22;48610;52.144;8.624;2023-12-07T08:52:59;4.10;99.90
62555;DHT22;48610;52.144;8.624;2023-12-07T08:56:00;4.30;99.90
62555;DHT22;48610;52.144;8.624;2023-12-07T08:59:02;4.30;99.90
62555;DHT22;48610;52.144;8.624;2023-12-07T09:02:03;4.10;99.90
62555;DHT22;48610;52.144;8.624;2023-12-07T09:05:04;4.10;99.90
62555;DHT22;48610;52.144;8.624;2023-12-07T09:08:04;3.90;99.90
62555;DHT22;48610;52.144;8.624;2023-12-07T09:11:05;3.80;99.90
62555;DHT22;48610;52.144;8.624;2023-12-07T09:14:06;3.80;99.90
62555;DHT22;48610;52.144;8.624;2023-12-07T09:17:07;4.00;99.90
62555;DHT22;48610;52.144;8.624;2023-12-07T09:20:08;4.10;99.90
62555;DHT22;48610;52.144;8.624;2023-12-07T09:23:12;3.80;99.90
62555;DHT22;48610;52.144;8.624;2023-12-07T09:26:13;3.90;99.90
62555;DHT22;48610;52.144;8.624;2023-12-07T09:29:14;4.00;99.90
62555;DHT22;48610;52.144;8.624;2023-12-07T09:32:14;4.10;99.90
62555;DHT22;48610;52.144;8.624;2023-12-07T09:35:15;4.00;99.90
62555;DHT22;48610;52.144;8.624;2023-12-07T09:38:19;4.00;99.90
62555;DHT22;48610;52.144;8.624;2023-12-07T09:41:19;4.20;99.90
62555;DHT22;48610;52.144;8.624;2023-12-07T09:44:20;4.30;99.90
62555;DHT22;48610;52.144;8.624;2023-12-07T09:47:21;4.10;99.90
62555;DHT22;48610;52.144;8.624;2023-12-07T09:50:25;4.00;99.90
62555;DHT22;48610;52.144;8.624;2023-12-07T09:53:28;3.90;99.90
62555;DHT22;48610;52.144;8.624;2023-12-07T09:56:29;4.20;99.90
62555;DHT22;48610;52.144;8.624;2023-12-07T09:59:30;4.30;99.90
62555;DHT22;48610;52.144;8.624;2023-12-07T10:02:31;4.10;99.90
62555;DHT22;48610;52.144;8.624;2023-12-07T10:05:32;4.10;99.90
62555;DHT22;48610;52.144;8.624;2023-12-07T10:08:33;4.10;99.90
62555;DHT22;48610;52.144;8.624;2023-12-07T10:11:38;4.10;99.90
62555;DHT22;48610;52.144;8.624;2023-12-07T10:14:38;4.20;99.90
62555;DHT22;48610;52.144;8.624;2023-12-07T10:17:53;4.10;99.90
62555;DHT22;48610;52.144;8.624;2023-12-07T10:20:54;4.30;99.90
62555;DHT22;48610;52.144;8.624;2023-12-07T10:23:55;4.40;99.90
62555;DHT22;48610;52.144;8.624;2023-12-07T10:26:56;4.30;99.90
62555;DHT22;48610;52.144;8.624;2023-12-07T10:30:00;4.40;99.90
62555;DHT22;48610;52.144;8.624;2023-12-07T10:33:03;4.50;99.90
62555;DHT22;48610;52.144;8.624;2023-12-07T10:36:05;4.00;99.90
62555;DHT22;48610;52.144;8.624;2023-12-07T10:39:07;4.20;99.90
62555;DHT22;48610;52.144;8.624;2023-12-07T10:42:10;4.40;99.90
62555;DHT22;48610;52.144;8.624;2023-12-07T10:45:15;4.60;99.90
62555;DHT22;48610;52.144;8.624;2023-12-07T10:48:16;4.70;99.90
62555;DHT22;48610;52.144;8.624;2023-12-07T10:51:27;4.60;99.90
62555;DHT22;48610;52.144;8.624;2023-12-07T10:54:50;4.70;99.90
62555;DHT22;48610;52.144;8.624;2023-12-07T10:57:55;4.90;99.90
62555;DHT22;48610;52.144;8.624;2023-12-07T11:00:57;4.90;99.90
62555;DHT22;48610;52.144;8.624;2023-12-07T11:03:58;4.90;99.90
62555;DHT22;48610;52.144;8.624;2023-12-07T11:07:05;5.00;99.90
62555;DHT22;48610;52.144;8.624;2023-12-07T11:13:47;5.10;99.90
62555;DHT22;48610;52.144;8.624;2023-12-07T11:16:52;5.40;99.90
62555;DHT22;48610;52.144;8.624;2023-12-07T11:19:54;5.30;99.90
62555;DHT22;48610;52.144;8.624;2023-12-07T11:22:56;5.10;99.90
62555;DHT22;48610;52.144;8.624;2023-12-07T11:25:57;5.00;99.90
62555;DHT22;48610;52.144;8.624;2023-12-07T11:28:57;5.10;99.90
62555;DHT22;48610;52.144;8.624;2023-12-07T11:32:02;5.30;99.90
62555;DHT22;48610;52.144;8.624;2023-12-07T11:35:11;5.40;99.90
62555;DHT22;48610;52.144;8.624;2023-12-07T11:38:12;5.40;99.90
62555;DHT22;48610;52.144;8.624;2023-12-07T11:41:14;5.40;99.90
62555;DHT22;48610;52.144;8.624;2023-12-07T11:44:17;5.50;99.90
62555;DHT22;48610;52.144;8.624;2023-12-07T11:47:19;5.60;99.90
62555;DHT22;48610;52.144;8.624;2023-12-07T11:50:21;5.70;99.90
62555;DHT22;48610;52.144;8.624;2023-12-07T11:53:26;5.80;99.90
62555;DHT22;48610;52.144;8.624;2023-12-07T11:56:27;5.90;99.90
62555;DHT22;48610;52.144;8.624;2023-12-07T11:59:28;5.90;99.90
62555;DHT22;48610;52.144;8.624;2023-12-07T12:02:29;6.00;99.90
62555;DHT22;48610;52.144;8.624;2023-12-07T12:05:34;5.90;99.90
62555;DHT22;48610;52.144;8.624;2023-12-07T12:08:35;6.00;99.90
62555;DHT22;48610;52.144;8.624;2023-12-07T12:11:35;6.10;99.90
62555;DHT22;48610;52.144;8.624;2023-12-07T12:14:36;6.40;99.90
62555;DHT22;48610;52.144;8.624;2023-12-07T12:17:37;6.20;99.90
62555;DHT22;48610;52.144;8.624;2023-12-07T12:20:37;5.80;99.90
62555;DHT22;48610;52.144;8.624;2023-12-07T12:23:38;5.60;99.90
62555;DHT22;48610;52.144;8.624;2023-12-07T12:26:41;5.60;99.90
62555;DHT22;48610;52.144;8.624;2023-12-07T12:29:42;5.60;99.90
62555;DHT22;48610;52.144;8.624;2023-12-07T12:32:47;5.50;99.90
62555;DHT22;48610;52.144;8.624;2023-12-07T12:36:03;5.90;99.90
62555;DHT22;48610;52.144;8.624;2023-12-07T12:39:04;6.50;99.90
62555;DHT22;48610;52.144;8.624;2023-12-07T12:42:08;6.90;99.90
62555;DHT22;48610;52.144;8.624;2023-12-07T12:45:12;7.10;99.90
62555;DHT22;48610;52.144;8.624;2023-12-07T12:48:13;6.70;99.90
62555;DHT22;48610;52.144;8.624;2023-12-07T12:51:14;6.60;99.90
62555;DHT22;48610;52.144;8.624;2023-12-07T12:54:14;6.90;99.90
62555;DHT22;48610;52.144;8.624;2023-12-07T12:57:15;6.70;99.90
62555;DHT22;48610;52.144;8.624;2023-12-07T13:00:16;6.80;99.90
62555;DHT22;48610;52.144;8.624;2023-12-07T13:03:17;6.60;99.90
62555;DHT22;48610;52.144;8.624;2023-12-07T13:06:18;6.40;99.90
62555;DHT22;48610;52.144;8.624;2023-12-07T13:09:19;6.40;99.90
62555;DHT22;48610;52.144;8.624;2023-12-07T13:12:21;6.30;99.90
62555;DHT22;48610;52.144;8.624;2023-12-07T13:15:22;6.30;99.90
62555;DHT22;48610;52.144;8.624;2023-12-07T13:18:23;6.10;99.90
62555;DHT22;48610;52.144;8.624;2023-12-07T13:21:24;6.00;99.90
62555;DHT22;48610;52.144;8.624;2023-12-07T13:24:24;6.10;99.90
62555;DHT22;48610;52.144;8.624;2023-12-07T13:27:25;5.90;99.90
62555;DHT22;48610;52.144;8.624;2023-12-07T13:30:25;5.80;99.90
62555;DHT22;48610;52.144;8.624;2023-12-07T13:33:29;5.90;99.90
62555;DHT22;48610;52.144;8.624;2023-12-07T13:36:30;5.90;99.90
62555;DHT22;48610;52.144;8.624;2023-12-07T13:39:35;5.70;99.90
62555;DHT22;48610;52.144;8.624;2023-12-07T13:42:36;5.50;99.90
62555;DHT22;48610;52.144;8.624;2023-12-07T13:45:37;5.60;99.90
62555;DHT22;48610;52.144;8.624;2023-12-07T13:48:38;5.70;99.90
62555;DHT22;48610;52.144;8.624;2023-12-07T13:51:38;5.90;99.90
62555;DHT22;48610;52.144;8.624;2023-12-07T13:54:39;5.80;99.90
62555;DHT22;48610;52.144;8.624;2023-12-07T13:57:40;5.70;99.90
62555;DHT22;48610;52.144;8.624;2023-12-07T14:00:41;5.60;99.90
62555;DHT22;48610;52.144;8.624;2023-12-07T14:03:45;5.60;99.90
62555;DHT22;48610;52.144;8.624;2023-12-07T14:06:46;5.60;99.90
62555;DHT22;48610;52.144;8.624;2023-12-07T14:09:48;5.80;99.90
62555;DHT22;48610;52.144;8.624;2023-12-07T14:12:49;5.80;99.90
62555;DHT22;48610;52.144;8.624;2023-12-07T14:15:50;5.70;99.90
62555;DHT22;48610;52.144;8.624;2023-12-07T14:18:51;5.60;99.90
62555;DHT22;48610;52.144;8.624;2023-12-07T14:21:51;5.20;99.90
62555;DHT22;48610;52.144;8.624;2023-12-07T14:24:53;5.40;99.90
62555;DHT22;48610;52.144;8.624;2023-12-07T14:27:54;5.50;99.90
62555;DHT22;48610;52.144;8.624;2023-12-07T14:30:55;5.80;99.90
62555;DHT22;48610;52.144;8.624;2023-12-07T14:33:56;6.10;99.90
62555;DHT22;48610;52.144;8.624;2023-12-07T14:36:57;6.20;99.90
62555;DHT22;48610;52.144;8.624;2023-12-07T14:39:58;5.90;99.90
62555;DHT22;48610;52.144;8.624;2023-12-07T14:42:58;6.00;99.90
62555;DHT22;48610;52.144;8.624;2023-12-07T14:45:59;6.00;99.90
62555;DHT22;48610;52.144;8.624;2023-12-07T14:49:00;5.90;99.90
62555;DHT22;48610;52.144;8.624;2023-12-07T14:52:00;5.80;99.90
62555;DHT22;48610;52.144;8.624;2023-12-07T14:55:01;5.70;99.90
62555;DHT22;48610;52.144;8.624;2023-12-07T14:58:04;5.70;99.90
62555;DHT22;48610;52.144;8.624;2023-12-07T15:01:05;5.50;99.90
62555;DHT22;48610;52.144;8.624;2023-12-07T15:04:06;5.40;99.90
62555;DHT22;48610;52.144;8.624;2023-12-07T15:07:07;5.20;99.90
62555;DHT22;48610;52.144;8.624;2023-12-07T15:10:08;5.10;99.90
62555;DHT22;48610;52.144;8.624;2023-12-07T15:13:09;4.80;99.90
62555;DHT22;48610;52.144;8.624;2023-12-07T15:16:10;4.90;99.90
62555;DHT22;48610;52.144;8.624;2023-12-07T15:19:10;4.90;99.90
62555;DHT22;48610;52.144;8.624;2023-12-07T15:22:11;4.80;99.90
62555;DHT22;48610;52.144;8.624;2023-12-07T15:25:12;4.60;99.90
62555;DHT22;48610;52.144;8.624;2023-12-07T15:28:13;4.60;99.90
62555;DHT22;48610;52.144;8.624;2023-12-07T15:31:14;4.40;99.90
62555;DHT22;48610;52.144;8.624;2023-12-07T15:34:16;4.40;99.90
62555;DHT22;48610;52.144;8.624;2023-12-07T15:37:16;4.20;99.90
62555;DHT22;48610;52.144;8.624;2023-12-07T15:40:17;4.20;99.90
62555;DHT22;48610;52.144;8.624;2023-12-07T15:43:18;4.20;99.90
62555;DHT22;48610;52.144;8.624;2023-12-07T15:46:19;4.10;99.90
62555;DHT22;48610;52.144;8.624;2023-12-07T15:49:19;4.10;99.90
62555;DHT22;48610;52.144;8.624;2023-12-07T15:52:20;4.10;99.90
62555;DHT22;48610;52.144;8.624;2023-12-07T15:55:21;4.00;99.90
62555;DHT22;48610;52.144;8.624;2023-12-07T15:58:21;4.00;99.90
62555;DHT22;48610;52.144;8.624;2023-12-07T16:01:22;4.00;99.90
62555;DHT22;48610;52.144;8.624;2023-12-07T16:04:23;3.90;99.90
62555;DHT22;48610;52.144;8.624;2023-12-07T16:07:23;4.00;99.90
62555;DHT22;48610;52.144;8.624;2023-12-07T16:10:24;4.00;99.90
62555;DHT22;48610;52.144;8.624;2023-12-07T16:13:25;4.00;99.90
62555;DHT22;48610;52.144;8.624;2023-12-07T16:16:25;4.00;99.90
62555;DHT22;48610;52.144;8.624;2023-12-07T16:19:26;4.10;99.90
62555;DHT22;48610;52.144;8.624;2023-12-07T16:22:27;4.20;99.90
62555;DHT22;48610;52.144;8.624;2023-12-07T16:25:27;4.10;99.90
62555;DHT22;48610;52.144;8.624;2023-12-07T16:28:28;4.20;99.90
62555;DHT22;48610;52.144;8.624;2023-12-07T16:31:28;4.10;99.90
62555;DHT22;48610;52.144;8.624;2023-12-07T16:34:29;3.90;99.90
62555;DHT22;48610;52.144;8.624;2023-12-07T16:37:32;3.80;99.90
62555;DHT22;48610;52.144;8.624;2023-12-07T16:40:32;3.50;99.90
62555;DHT22;48610;52.144;8.624;2023-12-07T16:43:33;3.30;99.90
62555;DHT22;48610;52.144;8.624;2023-12-07T16:46:34;3.10;99.90
62555;DHT22;48610;52.144;8.624;2023-12-07T16:49:35;3.10;99.90
62555;DHT22;48610;52.144;8.624;2023-12-07T16:52:35;3.20;99.90
62555;DHT22;48610;52.144;8.624;2023-12-07T16:55:38;3.20;99.90
62555;DHT22;48610;52.144;8.624;2023-12-07T16:58:38;3.10;99.90
62555;DHT22;48610;52.144;8.624;2023-12-07T17:01:39;3.00;99.90
62555;DHT22;48610;52.144;8.624;2023-12-07T17:04:40;3.00;99.90
62555;DHT22;48610;52.144;8.624;2023-12-07T17:07:40;3.10;99.90
62555;DHT22;48610;52.144;8.624;2023-12-07T17:10:41;3.00;99.90
62555;DHT22;48610;52.144;8.624;2023-12-07T17:13:42;3.00;99.90
62555;DHT22;48610;52.144;8.624;2023-12-07T17:16:43;2.90;99.90
62555;DHT22;48610;52.144;8.624;2023-12-07T17:19:43;2.60;99.90
62555;DHT22;48610;52.144;8.624;2023-12-07T17:22:44;2.60;99.90
62555;DHT22;48610;52.144;8.624;2023-12-07T17:25:44;2.50;99.90
62555;DHT22;48610;52.144;8.624;2023-12-07T17:28:45;2.40;99.90
62555;DHT22;48610;52.144;8.624;2023-12-07T17:31:47;2.40;99.90
62555;DHT22;48610;52.144;8.624;2023-12-07T17:34:48;2.30;99.90
62555;DHT22;48610;52.144;8.624;2023-12-07T17:37:49;2.20;99.90
62555;DHT22;48610;52.144;8.624;2023-12-07T17:40:49;2.30;99.90
62555;DHT22;48610;52.144;8.624;2023-12-07T17:43:50;2.30;99.90
62555;DHT22;48610;52.144;8.624;2023-12-07T17:46:53;2.20;99.90
62555;DHT22;48610;52.144;8.624;2023-12-07T17:49:54;2.20;99.90
62555;DHT22;48610;52.144;8.624;2023-12-07T17:52:55;2.10;99.90
62555;DHT22;48610;52.144;8.624;2023-12-07T17:55:55;2.20;99.90
62555;DHT22;48610;52.144;8.624;2023-12-07T17:58:56;2.30;99.90
62555;DHT22;48610;52.144;8.624;2023-12-07T18:01:56;2.20;99.90
62555;DHT22;48610;52.144;8.624;2023-12-07T18:04:57;2.20;99.90
62555;DHT22;48610;52.144;8.624;2023-12-07T18:07:58;2.20;99.90
62555;DHT22;48610;52.144;8.624;2023-12-07T18:10:59;2.20;99.90
62555;DHT22;48610;52.144;8.624;2023-12-07T18:14:00;2.20;99.90
62555;DHT22;48610;52.144;8.624;2023-12-07T18:17:00;2.30;99.90
62555;DHT22;48610;52.144;8.624;2023-12-07T18:20:01;2.20;99.90
62555;DHT22;48610;52.144;8.624;2023-12-07T18:23:02;2.10;99.90
62555;DHT22;48610;52.144;8.624;2023-12-07T18:26:03;2.10;99.90
62555;DHT22;48610;52.144;8.624;2023-12-07T18:29:04;2.10;99.90
62555;DHT22;48610;52.144;8.624;2023-12-07T18:32:05;2.10;99.90
62555;DHT22;48610;52.144;8.624;2023-12-07T18:35:06;2.20;99.90
62555;DHT22;48610;52.144;8.624;2023-12-07T18:38:08;2.00;99.90
62555;DHT22;48610;52.144;8.624;2023-12-07T18:41:09;1.90;99.90
62555;DHT22;48610;52.144;8.624;2023-12-07T18:44:10;2.00;99.90
62555;DHT22;48610;52.144;8.624;2023-12-07T18:47:10;1.80;99.90
62555;DHT22;48610;52.144;8.624;2023-12-07T18:50:11;1.80;99.90
62555;DHT22;48610;52.144;8.624;2023-12-07T18:53:12;1.80;99.90
62555;DHT22;48610;52.144;8.624;2023-12-07T18:56:15;1.70;99.90
62555;DHT22;48610;52.144;8.624;2023-12-07T18:59:15;1.90;99.90
62555;DHT22;48610;52.144;8.624;2023-12-07T19:02:16;1.90;99.90
62555;DHT22;48610;52.144;8.624;2023-12-07T19:05:17;1.90;99.90
62555;DHT22;48610;52.144;8.624;2023-12-07T19:08:17;1.90;99.90
62555;DHT22;48610;52.144;8.624;2023-12-07T19:11:18;1.80;99.90
62555;DHT22;48610;52.144;8.624;2023-12-07T19:14:18;1.60;99.90
62555;DHT22;48610;52.144;8.624;2023-12-07T19:17:19;1.70;99.90
62555;DHT22;48610;52.144;8.624;2023-12-07T19:20:20;1.80;99.90
62555;DHT22;48610;52.144;8.624;2023-12-07T19:23:20;1.90;99.90
62555;DHT22;48610;52.144;8.624;2023-12-07T19:26:21;1.90;99.90
62555;DHT22;48610;52.144;8.624;2023-12-07T19:29:23;1.80;99.90
62555;DHT22;48610;52.144;8.624;2023-12-07T19:32:23;1.70;99.90